sensor_id;sensor_type;location;lat;lon;timestamp;pressure;altitude;pressure_sealevel;temperature;humidity
29163;BME280;20331;53.144;8.208;2022-09-30T00:07:58;100534.59;;;11.08;100.00
29163;BME280;20331;53.144;8.208;2022-09-30T00:18:19;100532.84;;;10.96;100.00
29163;BME280;20331;53.144;8.208;2022-09-30T00:28:41;100548.00;;;10.91;100.00
29163;BME280;20331;53.144;8.208;2022-09-30T00:39:03;100551.69;;;10.76;100.00
29163;BME280;20331;53.144;8.208;2022-09-30T00:49:25;100543.34;;;10.71;100.00
29163;BME280;20331;53.144;8.208;2022-09-30T00:59:46;100554.22;;;10.53;100.00
29163;BME280;20331;53.144;8.208;2022-09-30T01:10:10;100553.91;;;10.57;100.00
29163;BME280;20331;53.144;8.208;2022-09-30T01:20:45;100546.94;;;10.46;100.00
29163;BME280;20331;53.144;8.208;2022-09-30T01:41:41;100547.84;;;10.20;100.00
29163;BME280;20331;53.144;8.208;2022-09-30T01:52:06;100541.91;;;10.30;100.00
29163;BME280;20331;53.144;8.208;2022-09-30T02:02:30;100540.66;;;10.11;100.00
29163;BME280;20331;53.144;8.208;2022-09-30T02:13:11;100552.19;;;10.07;100.00
29163;BME280;20331;53.144;8.208;2022-09-30T02:23:35;100556.03;;;9.89;100.00
29163;BME280;20331;53.144;8.208;2022-09-30T02:34:06;100557.47;;;9.93;100.00
29163;BME280;20331;53.144;8.208;2022-09-30T02:44:29;100560.13;;;9.79;100.00
29163;BME280;20331;53.144;8.208;2022-09-30T03:05:16;100587.34;;;9.61;100.00
29163;BME280;20331;53.144;8.208;2022-09-30T03:15:44;100589.81;;;9.50;100.00
29163;BME280;20331;53.144;8.208;2022-09-30T03:46:56;100609.00;;;9.35;100.00
29163;BME280;20331;53.144;8.208;2022-09-30T03:57:19;100612.75;;;9.57;100.00
29163;BME280;20331;53.144;8.208;2022-09-30T04:07:40;100618.34;;;9.52;100.00
29163;BME280;20331;53.144;8.208;2022-09-30T04:18:02;100629.88;;;9.48;100.00
29163;BME280;20331;53.144;8.208;2022-09-30T04:28:24;100643.53;;;9.51;100.00
29163;BME280;20331;53.144;8.208;2022-09-30T04:38:46;100648.16;;;9.46;100.00
29163;BME280;20331;53.144;8.208;2022-09-30T04:49:07;100661.00;;;9.49;100.00
29163;BME280;20331;53.144;8.208;2022-09-30T04:59:29;100663.06;;;9.44;100.00
29163;BME280;20331;53.144;8.208;2022-09-30T05:09:51;100681.28;;;9.44;100.00
29163;BME280;20331;53.144;8.208;2022-09-30T05:20:13;100680.72;;;9.39;100.00
29163;BME280;20331;53.144;8.208;2022-09-30T05:30:41;100679.81;;;9.26;100.00
29163;BME280;20331;53.144;8.208;2022-09-30T05:41:07;100694.69;;;9.10;100.00
29163;BME280;20331;53.144;8.208;2022-09-30T05:51:29;100700.97;;;9.06;100.00
29163;BME280;20331;53.144;8.208;2022-09-30T06:01:51;100711.94;;;9.11;100.00
29163;BME280;20331;53.144;8.208;2022-09-30T06:12:15;100726.16;;;9.06;100.00
29163;BME280;20331;53.144;8.208;2022-09-30T06:22:37;100727.91;;;9.05;100.00
29163;BME280;20331;53.144;8.208;2022-09-30T06:32:58;100724.94;;;9.25;100.00
29163;BME280;20331;53.144;8.208;2022-09-30T06:43:21;100727.38;;;9.14;100.00
29163;BME280;20331;53.144;8.208;2022-09-30T06:53:42;100744.09;;;9.38;100.00
29163;BME280;20331;53.144;8.208;2022-09-30T07:04:04;100756.34;;;9.50;100.00
29163;BME280;20331;53.144;8.208;2022-09-30T07:14:29;100762.66;;;9.60;100.00
29163;BME280;20331;53.144;8.208;2022-09-30T07:24:53;100757.78;;;9.82;100.00
29163;BME280;20331;53.144;8.208;2022-09-30T07:35:14;100755.63;;;10.02;100.00
29163;BME280;20331;53.144;8.208;2022-09-30T07:45:35;100752.84;;;10.32;100.00
29163;BME280;20331;53.144;8.208;2022-09-30T07:56:01;100752.31;;;10.65;100.00
29163;BME280;20331;53.144;8.208;2022-09-30T08:06:23;100754.81;;;10.79;100.00
29163;BME280;20331;53.144;8.208;2022-09-30T08:16:45;100755.28;;;10.98;100.00
29163;BME280;20331;53.144;8.208;2022-09-30T08:27:07;100769.59;;;11.30;100.00
29163;BME280;20331;53.144;8.208;2022-09-30T08:37:28;100776.38;;;11.45;100.00
29163;BME280;20331;53.144;8.208;2022-09-30T08:47:52;100782.59;;;11.80;100.00
29163;BME280;20331;53.144;8.208;2022-09-30T08:58:21;100787.81;;;11.92;100.00
29163;BME280;20331;53.144;8.208;2022-09-30T09:19:10;100794.81;;;12.85;100.00
29163;BME280;20331;53.144;8.208;2022-09-30T09:29:43;100799.53;;;13.04;99.76
29163;BME280;20331;53.144;8.208;2022-09-30T09:40:11;100791.19;;;13.44;97.58
29163;BME280;20331;53.144;8.208;2022-09-30T09:50:57;100791.94;;;13.68;95.89
29163;BME280;20331;53.144;8.208;2022-09-30T10:01:19;100800.59;;;13.68;94.96
29163;BME280;20331;53.144;8.208;2022-09-30T10:22:29;100791.19;;;13.88;89.76
29163;BME280;20331;53.144;8.208;2022-09-30T10:32:51;100786.28;;;13.94;88.20
29163;BME280;20331;53.144;8.208;2022-09-30T10:43:33;100780.56;;;14.00;89.05
29163;BME280;20331;53.144;8.208;2022-09-30T10:53:57;100775.41;;;14.63;89.46
29163;BME280;20331;53.144;8.208;2022-09-30T11:14:48;100802.72;;;14.60;85.20
29163;BME280;20331;53.144;8.208;2022-09-30T11:25:15;100800.53;;;15.28;79.92
29163;BME280;20331;53.144;8.208;2022-09-30T11:35:41;100790.66;;;14.89;81.88
29163;BME280;20331;53.144;8.208;2022-09-30T11:46:14;100769.03;;;15.17;79.21
29163;BME280;20331;53.144;8.208;2022-09-30T12:07:19;100756.69;;;15.08;77.64
29163;BME280;20331;53.144;8.208;2022-09-30T12:49:26;100737.31;;;15.50;73.99
29163;BME280;20331;53.144;8.208;2022-09-30T12:59:51;100733.03;;;15.98;73.00
29163;BME280;20331;53.144;8.208;2022-09-30T13:10:27;100730.78;;;15.84;71.89
29163;BME280;20331;53.144;8.208;2022-09-30T13:31:23;100712.25;;;15.95;70.94
29163;BME280;20331;53.144;8.208;2022-09-30T13:41:47;100707.03;;;16.04;70.76
29163;BME280;20331;53.144;8.208;2022-09-30T13:52:24;100714.63;;;16.17;69.69
29163;BME280;20331;53.144;8.208;2022-09-30T14:03:04;100701.47;;;16.17;72.80
29163;BME280;20331;53.144;8.208;2022-09-30T14:24:11;100684.84;;;15.88;70.78
29163;BME280;20331;53.144;8.208;2022-09-30T14:34:35;100683.06;;;15.98;71.21
29163;BME280;20331;53.144;8.208;2022-09-30T14:45:00;100675.06;;;16.28;69.69
29163;BME280;20331;53.144;8.208;2022-09-30T14:55:34;100664.66;;;16.17;70.02
29163;BME280;20331;53.144;8.208;2022-09-30T15:05:55;100651.13;;;16.12;68.42
29163;BME280;20331;53.144;8.208;2022-09-30T15:16:22;100655.13;;;15.97;71.17
29163;BME280;20331;53.144;8.208;2022-09-30T15:26:44;100654.69;;;16.01;70.05
29163;BME280;20331;53.144;8.208;2022-09-30T15:37:12;100650.22;;;15.64;73.14
29163;BME280;20331;53.144;8.208;2022-09-30T15:47:43;100657.25;;;15.54;71.57
29163;BME280;20331;53.144;8.208;2022-09-30T16:08:48;100643.28;;;15.63;73.08
29163;BME280;20331;53.144;8.208;2022-09-30T16:19:14;100641.28;;;15.27;74.18
29163;BME280;20331;53.144;8.208;2022-09-30T16:29:37;100654.34;;;15.18;74.89
29163;BME280;20331;53.144;8.208;2022-09-30T16:40:00;100658.72;;;14.87;76.56
29163;BME280;20331;53.144;8.208;2022-09-30T17:00:55;100653.88;;;14.22;81.93
29163;BME280;20331;53.144;8.208;2022-09-30T17:11:21;100652.19;;;13.78;84.59
29163;BME280;20331;53.144;8.208;2022-09-30T17:21:47;100671.16;;;13.71;84.97
29163;BME280;20331;53.144;8.208;2022-09-30T17:32:08;100660.75;;;13.38;86.88
29163;BME280;20331;53.144;8.208;2022-09-30T17:42:30;100647.19;;;13.33;87.95
29163;BME280;20331;53.144;8.208;2022-09-30T17:53:10;100652.63;;;13.52;84.63
29163;BME280;20331;53.144;8.208;2022-09-30T18:03:37;100639.34;;;13.22;85.76
29163;BME280;20331;53.144;8.208;2022-09-30T18:13:58;100632.03;;;13.37;84.56
29163;BME280;20331;53.144;8.208;2022-09-30T18:24:20;100634.56;;;13.38;86.19
29163;BME280;20331;53.144;8.208;2022-09-30T18:35:01;100626.41;;;13.63;83.16
29163;BME280;20331;53.144;8.208;2022-09-30T18:45:31;100622.44;;;13.37;84.26
29163;BME280;20331;53.144;8.208;2022-09-30T18:55:52;100618.25;;;13.35;86.18
29163;BME280;20331;53.144;8.208;2022-09-30T19:06:14;100601.44;;;13.48;83.24
29163;BME280;20331;53.144;8.208;2022-09-30T19:16:36;100592.69;;;13.16;86.19
29163;BME280;20331;53.144;8.208;2022-09-30T19:26:59;100581.75;;;13.22;84.60
29163;BME280;20331;53.144;8.208;2022-09-30T19:37:20;100564.63;;;13.18;84.00
29163;BME280;20331;53.144;8.208;2022-09-30T19:47:48;100562.56;;;12.89;85.19
29163;BME280;20331;53.144;8.208;2022-09-30T19:58:09;100545.50;;;12.96;83.58
29163;BME280;20331;53.144;8.208;2022-09-30T20:08:31;100530.63;;;13.07;83.02
29163;BME280;20331;53.144;8.208;2022-09-30T20:18:53;100525.38;;;13.07;83.81
29163;BME280;20331;53.144;8.208;2022-09-30T20:29:15;100499.78;;;13.11;83.23
29163;BME280;20331;53.144;8.208;2022-09-30T20:39:39;100504.00;;;12.91;83.80
29163;BME280;20331;53.144;8.208;2022-09-30T20:50:03;100490.28;;;12.77;85.31
29163;BME280;20331;53.144;8.208;2022-09-30T21:00:24;100479.72;;;12.67;84.72
29163;BME280;20331;53.144;8.208;2022-09-30T21:10:45;100465.22;;;12.52;85.23
29163;BME280;20331;53.144;8.208;2022-09-30T21:21:08;100458.84;;;12.46;86.54
29163;BME280;20331;53.144;8.208;2022-09-30T21:31:30;100461.44;;;12.56;86.66
29163;BME280;20331;53.144;8.208;2022-09-30T21:41:53;100439.53;;;12.68;83.65
29163;BME280;20331;53.144;8.208;2022-09-30T21:52:15;100429.09;;;12.79;83.15
29163;BME280;20331;53.144;8.208;2022-09-30T22:02:36;100419.34;;;12.59;83.61
29163;BME280;20331;53.144;8.208;2022-09-30T22:12:58;100415.28;;;12.66;84.51
29163;BME280;20331;53.144;8.208;2022-09-30T22:23:19;100398.44;;;12.59;84.01
29163;BME280;20331;53.144;8.208;2022-09-30T22:33:41;100402.94;;;12.68;82.92
29163;BME280;20331;53.144;8.208;2022-09-30T22:44:21;100392.25;;;12.60;84.06
29163;BME280;20331;53.144;8.208;2022-09-30T22:54:45;100378.44;;;12.69;84.20
29163;BME280;20331;53.144;8.208;2022-09-30T23:05:07;100354.69;;;12.61;84.19
29163;BME280;20331;53.144;8.208;2022-09-30T23:15:28;100349.47;;;12.61;82.75
29163;BME280;20331;53.144;8.208;2022-09-30T23:26:00;100330.66;;;12.67;82.99
29163;BME280;20331;53.144;8.208;2022-09-30T23:36:22;100314.84;;;12.69;83.09
29163;BME280;20331;53.144;8.208;2022-09-30T23:46:46;100292.59;;;12.74;83.70
29163;BME280;20331;53.144;8.208;2022-09-30T23:57:26;100281.03;;;12.77;83.17
